Details for Virgin Australia at YSSY




Go Back


Latest METAR
Local Time

YSSY 160930Z 23009KT CAVOK 15/M03 Q1013 NOSIG
16/08/2018, 19:48:41

Description
Results
Virgin Australia Logo
Number of Pilots based at YSSY
0 Pilots Based here
Number of Virgin Australia Flights Departed from YSSY
1 Flights Departed
Number of Virgin Australia Flights Arrived at YSSY
2 Flights Arrived
Number of Virgin Australia Schedules Departing from YSSY
176 Schedules
Number of Virgin Australia Schedules Arriving at YSSY
171 Schedules
Number of Virgin Australia Schedules Departing from YSSY availible today
110 Schedules Today
Number of Virgin Australia Schedules Arriving at YSSY availible today
108 Schedules Today
Average Landing Rate at YSSY
-212 fpm
Virgin Australia Average Landing Rate at YSSY
-91 fpm
Total Fuel Purchased at YSSY by Virgin Australia
4,413.00 kgs / 9,728.90 lbs

Pilots Based at YSSY


Pilot ID
Pilot Name
Pilot Rank
No. of Flights
No. of Flying Hours
There are no pilots assigned to this hub!   Will you be the first?
Content